Waswanipi, Canada
Current Conditions -  °F | °C
As of 7:22 PM on Sunday 23 Nov 2014 (Local Time) from CYNM Reporting Station
Freezing Rain Freezing Rain  
Wind Chill: 25°   Ceiling: 300
Heat Index: 34°   Visibility: 6mi
Dew Point: 32°   Wind: 12mph
Humidity: 93%   Direction: 140°SE
Pressure: 29.68"   Gusts: NA
Location:  49.65°N, 76.48°W
Report Text: CYNM 240022Z AUTO 14010KT 6SM -FZRA BR OVC003 01/00 A2968 RMK ICG SLP070
Loading
Personal Weather Stations






























Interactive Weather Map New forecast layout! Learn more

10-Day Weather Forecast

Advertisements
Track Severe Weather on mobile